Tiempo atmosférico en la estación meteorológica de Pola de Lena, Asturias (370 m.)



Fecha
DESCASC
Temp. máxima en grados centígrados (hora)
DESCASC
Temp. mínima en grados centígrados (hora)
DESCASC
Temp. media en grados centígrados
DESCASC
Racha de viento máxima en m/sg (hora)
DESCASC
Velocidad máxima media en intervalos de 10 minutos(hora)
DESCASC
Precipitaciones diarias en mm
DESCASC
Precipitaciones de 00:00 a 06:00 en mm
DESCASC
Precipitaciones de 06:00 a 12:00 en mm
DESCASC
Precipitaciones de 12:00 a 18:00 en mm
DESCASC
Precipitaciones de 18:00 a 24:00 en mm
DESCASC

Gráficas

Temp. máximas Temp. mínimas Temp. medias Precipitaciones Rachas de viento máximas Velocidades máximas media en intervalos de 10 minutos

Datos horarios

Fecha y hora oficial Temperatura (ºC) Velocidad del viento (km/h) Dirección del viento Racha (km/h) Dirección de racha Precipitación (mm) Presión (hPa) Tendencia (hPa) Humedad (%)
2019-04-23 23:00:00 7.3 2 Oeste 6 Noroeste 0 -- -- 83
2019-04-23 22:00:00 8.3 2 Noroeste 15 Sudoeste 0 -- -- 80
2019-04-23 21:00:00 9.8 2 Oeste 17 Sudoeste 0 -- -- 70
2019-04-23 20:00:00 10.7 9 Oeste 18 Sudoeste 0 -- -- 70
2019-04-23 19:00:00 11.6 9 Sudoeste 22 Sudoeste 0 -- -- 71
2019-04-23 18:00:00 11.6 10 Norte 30 Sudeste 0 -- -- 74
2019-04-23 17:00:00 12.8 10 Sudeste 32 Sudeste 0.4 -- -- 61
2019-04-23 16:00:00 14 14 Sur 36 Sudeste 0.2 -- -- 51
2019-04-23 15:00:00 14.3 13 Sur 45 Sudeste 0 -- -- 51
2019-04-23 14:00:00 14.7 15 Sudeste 36 Sudeste 0 -- -- 47
2019-04-23 13:00:00 14.1 8 Sur 34 Sur 0 -- -- 46
2019-04-23 12:00:00 14.1 13 Este 27 Este 0 -- -- 58
2019-04-23 11:00:00 11.9 13 Sur 33 Sudeste 0 -- -- 66
2019-04-23 10:00:00 10.4 0 Calma 11 Norte 0 -- -- 83
2019-04-23 09:00:00 10 2 Norte 12 Oeste 0 -- -- 86
2019-04-23 08:00:00 9.9 5 Oeste 14 Sudoeste 0 -- -- 87
2019-04-23 07:00:00 10.6 6 Oeste 15 Sudoeste 0.2 -- -- 88
2019-04-23 06:00:00 11.4 2 Norte 13 Noroeste 0 -- -- 80
2019-04-23 05:00:00 12.4 6 Sudoeste 19 Sur 0 -- -- 67
2019-04-23 04:00:00 12.1 8 Sur 22 Sudeste 0 -- -- 69
2019-04-23 03:00:00 12 8 Sur 15 Sur 0 -- -- 73
2019-04-23 02:00:00 11.3 8 Sur 13 Sudoeste 0 -- -- 86
2019-04-23 01:00:00 11.6 0 Calma 5 Sudoeste 0 -- -- 85
2019-04-23 00:00:00 12.8 2 Sudoeste 8 Sur 0 -- -- 72
2019-04-22 23:00:00 12.7 2 Noroeste 5 Sur 0 -- -- 79
2019-04-22 22:00:00 13.6 0 Calma 8 Oeste 0 -- -- 73
2019-04-22 21:00:00 15.2 4 Noroeste 13 Nordeste 0 -- -- 62
2019-04-22 20:00:00 16.3 7 Norte 18 Norte 0 -- -- 65
2019-04-22 19:00:00 18.5 6 Nordeste 24 Norte 0 -- -- 59
2019-04-22 18:00:00 20.2 11 Norte 24 Norte 0 -- -- 48
2019-04-22 17:00:00 20.8 6 Noroeste 21 Sudeste 0 -- -- 39
2019-04-22 16:00:00 20 15 Este 28 Este 0 -- -- 46
2019-04-22 15:00:00 19.5 11 Sudeste 30 Este 0 -- -- 46
2019-04-22 14:00:00 19.7 11 Sudeste 27 Sudeste 0 -- -- 46
2019-04-22 13:00:00 19.6 14 Sudeste 29 Este 0 -- -- 45
2019-04-22 12:00:00 18.5 12 Sudeste 23 Sudeste 0 -- -- 49
2019-04-22 11:00:00 12.1 3 Norte 6 Norte 0 -- -- 76
2019-04-22 10:00:00 8.9 4 Nordeste 7 Nordeste 0 -- -- 87
2019-04-22 09:00:00 5.6 0 Calma 2 Oeste 0 -- -- 98
2019-04-22 08:00:00 4.1 0 Calma 4 Sur 0 -- -- 97
2019-04-22 07:00:00 4.3 2 Sur 4 Sudoeste 0 -- -- 97
2019-04-22 06:00:00 4.8 0 Calma 5 Sudeste 0 -- -- 95
2019-04-22 05:00:00 5.6 2 Sur 4 Sur 0 -- -- 95
2019-04-22 04:00:00 6 0 Calma 4 Sudeste 0 -- -- 94
2019-04-22 03:00:00 6.9 4 Sur 8 Sur 0 -- -- 92
2019-04-22 02:00:00 7.4 0 Calma 8 Sudeste 0 -- -- 90
2019-04-22 01:00:00 8.4 6 Sur 9 Sur 0 -- -- 88
2019-04-22 00:00:00 9.7 0 Calma 7 Oeste 0 -- -- 83
2019-04-21 23:00:00 11 3 Noroeste 10 Noroeste 0 -- -- 78
2019-04-21 22:00:00 12.9 5 Noroeste 10 Norte 0 -- -- 73
2019-04-21 21:00:00 15.3 5 Norte 17 Nordeste 0 -- -- 65
2019-04-21 20:00:00 16.3 5 Norte 22 Noroeste 0 -- -- 60
2019-04-21 19:00:00 17.2 6 Norte 30 Norte 0 -- -- 60
2019-04-21 18:00:00 17.9 13 Norte 26 Norte 0 -- -- 58
2019-04-21 17:00:00 18.7 13 Norte 24 Norte 0 -- -- 50
2019-04-21 16:00:00 18.8 11 Norte 24 Norte 0 -- -- 48
2019-04-21 15:00:00 17.7 11 Norte 22 Norte 0 -- -- 47
2019-04-21 14:00:00 16.8 12 Norte 23 Norte 0 -- -- 52
2019-04-21 13:00:00 17.9 9 Norte 19 Norte 0 -- -- 52
2019-04-21 12:00:00 15 3 Nordeste 6 Este 0 -- -- 63
2019-04-21 11:00:00 9.9 4 Oeste 20 Oeste 0 -- -- 81
2019-04-21 10:00:00 8.9 3 Norte 9 Sudeste 0 -- -- 86
2019-04-21 09:00:00 7 2 Sur 10 Sudeste 0 -- -- 92
2019-04-21 08:00:00 5.3 2 Sur 11 Sudeste 0 -- -- 94
2019-04-21 07:00:00 5.5 5 Sur 9 Sur 0 -- -- 94
2019-04-21 06:00:00 5.4 0 Calma 4 Sudoeste 0 -- -- 93
2019-04-21 05:00:00 6.2 3 Sur 10 Sudeste 0 -- -- 92
2019-04-21 04:00:00 6.8 0 Calma 8 Sur 0 -- -- 90
2019-04-21 03:00:00 7.5 4 Sur 12 Sudeste 0 -- -- 89
2019-04-21 02:00:00 8.4 4 Sur 12 Sudeste 0 -- -- 87
2019-04-21 01:00:00 9.1 3 Sur 9 Sur 0 -- -- 83
2019-04-21 00:00:00 10.5 4 Sur 8 Sur 0 -- -- 79
2019-04-20 23:00:00 12 3 Sur 10 Oeste 0 -- -- 75
2019-04-20 22:00:00 13.2 5 Oeste 10 Oeste 0 -- -- 69
2019-04-20 21:00:00 15.6 5 Oeste 23 Norte 0 -- -- 59
2019-04-20 20:00:00 17.7 9 Norte 23 Nordeste 0 -- -- 54
2019-04-20 19:00:00 19.6 10 Norte 31 Norte 0 -- -- 52
2019-04-20 18:00:00 21 13 Norte 28 Noroeste 0 -- -- 48
2019-04-20 17:00:00 21.5 12 Norte 31 Norte 0 -- -- 44
2019-04-20 16:00:00 21.5 15 Norte 32 Norte 0 -- -- 45
2019-04-20 15:00:00 21 12 Norte 26 Norte 0 -- -- 48
2019-04-20 14:00:00 20.1 13 Norte 26 Norte 0 -- -- 51
2019-04-20 13:00:00 19.4 14 Norte 25 Norte 0 -- -- 53
2019-04-20 12:00:00 17.1 8 Norte 13 Norte 0 -- -- 66
2019-04-20 11:00:00 13.5 8 Norte 12 Norte 0 -- -- 83
2019-04-20 10:00:00 10.3 0 Calma 4 Sudeste 0 -- -- 97
2019-04-20 09:00:00 8.5 3 Nordeste 9 Sur 0 -- -- 99
2019-04-20 08:00:00 7.3 2 Sur 5 Sudeste 0 -- -- 99
2019-04-20 07:00:00 7.6 4 Sur 9 Sudeste 0 -- -- 98
2019-04-20 06:00:00 8.3 2 Sur 9 Sudeste 0 -- -- 98
2019-04-20 05:00:00 8.7 5 Sur 10 Sur 0 -- -- 98
2019-04-20 04:00:00 9 0 Calma 9 Sudeste 0 -- -- 97
2019-04-20 03:00:00 9.6 2 Sur 5 Sur 0 -- -- 97
2019-04-20 02:00:00 10.6 3 Sudoeste 6 Sudeste 0 -- -- 96
2019-04-20 01:00:00 11.8 6 Sur 9 Sudeste 0 -- -- 93
2019-04-20 00:00:00 13.2 3 Sur 6 Sudeste 0 -- -- 89
2019-04-19 23:00:00 14.5 0 Calma 3 Este 0 -- -- 89
2019-04-19 22:00:00 14.8 0 Calma 6 Sudoeste 0 -- -- 86
2019-04-19 21:00:00 15.8 4 Oeste 10 Norte 0 -- -- 80
2019-04-19 20:00:00 16 5 Norte 12 Norte 0 -- -- 77
2019-04-19 19:00:00 15.9 7 Norte 19 Norte 0 -- -- 78
2019-04-19 18:00:00 15.9 11 Norte 26 Norte 0 -- -- 77
2019-04-19 17:00:00 16.2 17 Norte 29 Norte 0 -- -- 75
2019-04-19 16:00:00 16.8 14 Norte 27 Norte 0 -- -- 74
2019-04-19 15:00:00 16.7 15 Norte 25 Norte 0 -- -- 74
2019-04-19 14:00:00 15.7 11 Norte 19 Norte 0 -- -- 77
2019-04-19 13:00:00 14.9 8 Norte 18 Nordeste 0 -- -- 78
2019-04-19 12:00:00 13.8 6 Norte 15 Norte 0 -- -- 84
2019-04-19 11:00:00 12.6 4 Norte 8 Norte 0 -- -- 93
2019-04-19 10:00:00 11.6 3 Este 6 Sudeste 0 -- -- 97
2019-04-19 09:00:00 10.9 0 Calma 8 Sudoeste 0 -- -- 98
2019-04-19 08:00:00 10.6 3 Oeste 8 Norte 0.2 -- -- 99
2019-04-19 07:00:00 10.4 4 Oeste 8 Noroeste 1 -- -- 99
2019-04-19 06:00:00 10.5 3 Noroeste 13 Noroeste 2.4 -- -- 98
2019-04-19 05:00:00 10.5 2 Norte 12 Norte 0.2 -- -- 98
2019-04-19 04:00:00 10.5 4 Norte 9 Noroeste 0.2 -- -- 97
2019-04-19 03:00:00 10.5 0 Calma 8 Sudoeste 0.4 -- -- 98
2019-04-19 02:00:00 10.5 3 Norte 11 Norte 1 -- -- 97
2019-04-19 01:00:00 10.7 3 Noroeste 9 Noroeste 0 -- -- 96
2019-04-19 00:00:00 10.8 3 Noroeste 8 Oeste 0 -- -- 96
2019-04-18 23:00:00 10.9 4 Noroeste 10 Nordeste 0.2 -- -- 96
2019-04-18 22:00:00 10.9 2 Noroeste 8 Noroeste 0.6 -- -- 96
2019-04-18 21:00:00 11.2 3 Noroeste 8 Norte 1.8 -- -- 96
2019-04-18 20:00:00 11.5 5 Norte 17 Norte 0.4 -- -- 93
2019-04-18 19:00:00 12.1 6 Norte 13 Norte 0.4 -- -- 93
2019-04-18 18:00:00 12.5 6 Norte 21 Norte 1.2 -- -- 91
2019-04-18 17:00:00 13.9 8 Norte 27 Norte 0 -- -- 82
2019-04-18 16:00:00 15.2 10 Norte 27 Norte 0 -- -- 73
2019-04-18 15:00:00 15 8 Norte 19 Norte 0.2 -- -- 72
2019-04-18 14:00:00 15.1 10 Norte 19 Norte 0 -- -- 71
2019-04-18 13:00:00 15.1 12 Norte 19 Norte 0 -- -- 68
2019-04-18 12:00:00 14.3 9 Norte 15 Norte 0 -- -- 74
2019-04-18 11:00:00 12.3 4 Norte 9 Norte 0 -- -- 88
2019-04-18 10:00:00 10.6 5 Norte 9 Norte 0 -- -- 95
2019-04-18 09:00:00 9.7 3 Noroeste 8 Norte 0 -- -- 97
2019-04-18 08:00:00 9.6 0 Calma 6 Sudeste 0 -- -- 96
2019-04-18 07:00:00 9.9 5 Sudeste 8 Sudeste 0 -- -- 96
2019-04-18 06:00:00 10 3 Sur 6 Sur 0 -- -- 95
2019-04-18 05:00:00 10 0 Calma 10 Norte 0 -- -- 93
2019-04-18 04:00:00 10.1 3 Noroeste 10 Oeste 0 -- -- 97
2019-04-18 03:00:00 10.2 0 Calma 4 Oeste 0.2 -- -- 95
2019-04-18 02:00:00 10.4 0 Calma 8 Oeste 0.6 -- -- 95
2019-04-18 01:00:00 10.7 3 Noroeste 8 Noroeste 0.6 -- -- 91
2019-04-18 00:00:00 11.5 5 Sudoeste 24 Sudoeste 0.6 -- -- 86
2019-04-17 23:00:00 13.7 9 Sudoeste 20 Sudoeste 0 -- -- 65
2019-04-17 22:00:00 16.5 5 Sudoeste 25 Sudeste 0 -- -- 63
2019-04-17 21:00:00 18.2 8 Sudeste 26 Sudeste 0 -- -- 52
2019-04-17 20:00:00 19.5 15 Sudeste 39 Sur 0 -- -- 55
2019-04-17 19:00:00 21.9 11 Sudeste 41 Sur 0 -- -- 40
2019-04-17 18:00:00 22.8 15 Sudeste 44 Este 0 -- -- 37
2019-04-17 17:00:00 22.8 14 Sudeste 42 Sudeste 0 -- -- 39
2019-04-17 16:00:00 22.2 16 Sudeste 38 Este 0 -- -- 40
2019-04-17 15:00:00 21.6 18 Sudeste 42 Sudeste 0 -- -- 43
2019-04-17 14:00:00 21.7 19 Sudeste 52 Sudeste 0 -- -- 40
2019-04-17 13:00:00 22.2 15 Sudeste 34 Sudeste 0 -- -- 40
2019-04-17 12:00:00 21.2 15 Sudeste 40 Sudeste 0 -- -- 43
2019-04-17 11:00:00 20.6 14 Sudeste 40 Sudeste 0 -- -- 44
2019-04-17 10:00:00 18.8 13 Sudeste 27 Este 0 -- -- 46
2019-04-17 09:00:00 16.7 14 Sudeste 38 Sudeste 0 -- -- 49
2019-04-17 08:00:00 16.3 13 Sur 42 Sudeste 0 -- -- 50
2019-04-17 07:00:00 16.8 18 Sudeste 38 Sur 0 -- -- 48
2019-04-17 06:00:00 15.2 7 Sur 20 Sur 0 -- -- 53
2019-04-17 05:00:00 13.8 6 Sur 11 Sudeste 0 -- -- 60
2019-04-17 04:00:00 10 2 Noroeste 4 Oeste 0 -- -- 94
2019-04-17 03:00:00 10.6 0 Calma 9 Norte 0 -- -- 92
2019-04-17 02:00:00 10.9 3 Noroeste 8 Noroeste 0 -- -- 91
2019-04-17 01:00:00 11.3 4 Oeste 9 Oeste 0 -- -- 89
2019-04-17 00:00:00 11.7 0 Calma 4 Oeste 0 -- -- 89
2019-04-16 23:00:00 12.4 0 Calma 5 Oeste 0 -- -- 85
2019-04-16 22:00:00 13.8 2 Oeste 12 Oeste 0 -- -- 78
2019-04-16 21:00:00 15.2 4 Oeste 11 Noroeste 0 -- -- 72
2019-04-16 20:00:00 16.5 3 Noroeste 13 Noroeste 0 -- -- 67
2019-04-16 19:00:00 17.5 6 Norte 21 Norte 0 -- -- 64
2019-04-16 18:00:00 17.7 15 Norte 24 Norte 0 -- -- 63
2019-04-16 17:00:00 17.9 13 Norte 24 Norte 0 -- -- 60
2019-04-16 16:00:00 18.4 14 Norte 26 Norte 0 -- -- 58
2019-04-16 15:00:00 17.3 16 Norte 27 Norte 0 -- -- 55
2019-04-16 14:00:00 17.5 17 Norte 29 Norte 0 -- -- 56
2019-04-16 13:00:00 16.4 15 Norte 29 Norte 0 -- -- 58
2019-04-16 12:00:00 14.6 12 Norte 18 Norte 0 -- -- 67
2019-04-16 11:00:00 10.9 7 Norte 11 Norte 0 -- -- 83
2019-04-16 10:00:00 8.5 2 Nordeste 4 Nordeste 0 -- -- 89
2019-04-16 09:00:00 5.2 0 Calma 4 Sudeste 0 -- -- 100
2019-04-16 08:00:00 4.3 2 Sudeste 8 Sur 0 -- -- 98
2019-04-16 07:00:00 4.7 4 Sudoeste 9 Sur 0 -- -- 98
2019-04-16 06:00:00 5.4 2 Sur 8 Sudeste 0 -- -- 97
2019-04-16 05:00:00 6.6 3 Sudoeste 5 Sudeste 0 -- -- 97
2019-04-16 04:00:00 7.7 0 Calma 5 Sur 0 -- -- 95
2019-04-16 03:00:00 9 3 Sur 7 Sudeste 0 -- -- 94
2019-04-16 02:00:00 10 0 Calma 3 Sur 0 -- -- 95
2019-04-16 01:00:00 10.1 0 Calma 8 Oeste 0 -- -- 94
2019-04-16 00:00:00 10.3 3 Norte 18 Sudoeste 0 -- -- 92
2019-04-15 23:00:00 10.5 5 Sudoeste 17 Sudoeste 0 -- -- 92
2019-04-15 22:00:00 10.9 3 Noroeste 15 Norte 0.2 -- -- 93
2019-04-15 21:00:00 11.4 7 Norte 18 Norte 0 -- -- 92
2019-04-15 20:00:00 12 6 Este 24 Sudoeste 0.8 -- -- 91
2019-04-15 19:00:00 13.7 6 Norte 29 Norte 0 -- -- 81
2019-04-15 18:00:00 13.9 14 Norte 30 Norte 0 -- -- 86
2019-04-15 17:00:00 13.9 0 Calma 23 Norte 0.2 -- -- 90
2019-04-15 16:00:00 15.6 14 Norte 30 Noroeste 0 -- -- 87
2019-04-15 15:00:00 17.3 13 Norte 24 Norte 0 -- -- 83
2019-04-15 14:00:00 17.1 11 Norte 26 Norte 0 -- -- 86
2019-04-15 13:00:00 15.5 6 Norte 12 Norte 1.4 -- -- 93
2019-04-15 12:00:00 16.4 6 Noroeste 12 Sudoeste 0.4 -- -- 87
2019-04-15 11:00:00 17.4 3 Oeste 9 Oeste 0.4 -- -- 85
2019-04-15 10:00:00 17.9 3 Oeste 22 Sudeste 0 -- -- 73
2019-04-15 09:00:00 19.4 6 Sur 26 Sudeste 0 -- -- 60
2019-04-15 08:00:00 18.8 9 Sudeste 24 Sudeste 0 -- -- 61
2019-04-15 07:00:00 18.1 8 Sur 23 Sur 0 -- -- 66
2019-04-15 06:00:00 17.6 10 Sur 21 Sudeste 0 -- -- 71
2019-04-15 05:00:00 12.3 3 Noroeste 10 Sur 0 -- -- 92
2019-04-15 04:00:00 12.5 0 Calma 4 Norte 0 -- -- 93
2019-04-15 03:00:00 12.6 2 Sur 8 Sudeste 0 -- -- 92
2019-04-15 02:00:00 12.5 0 Calma 7 Oeste 0 -- -- 92
2019-04-15 01:00:00 12.9 0 Calma 8 Sudeste 0 -- -- 90
2019-04-15 00:00:00 13.8 0 Calma 4 Sudoeste 0 -- -- 88
2019-04-14 23:00:00 15 3 Sudoeste 6 Sur 0 -- -- 83
2019-04-14 22:00:00 16.2 2 Sudoeste 9 Oeste 0 -- -- 79
2019-04-14 21:00:00 18.5 4 Oeste 13 Norte 0 -- -- 70
2019-04-14 20:00:00 19.8 5 Norte 18 Norte 0 -- -- 66
2019-04-14 19:00:00 20.6 6 Norte 21 Norte 0 -- -- 63
2019-04-14 18:00:00 21.1 12 Norte 27 Norte 0 -- -- 61
2019-04-14 17:00:00 21.6 13 Norte 27 Norte 0 -- -- 59
2019-04-14 16:00:00 21.9 17 Norte 31 Norte 0 -- -- 60
2019-04-14 15:00:00 22 14 Norte 26 Norte 0 -- -- 55
2019-04-14 14:00:00 21.5 14 Norte 26 Norte 0 -- -- 57
2019-04-14 13:00:00 21.2 14 Norte 23 Norte 0 -- -- 55
2019-04-14 12:00:00 19 5 Norte 10 Norte 0 -- -- 59
2019-04-14 11:00:00 16.4 4 Norte 8 Norte 0 -- -- 71
2019-04-14 10:00:00 13.1 0 Calma 5 Sudoeste 0 -- -- 84
2019-04-14 09:00:00 11.9 0 Calma 3 Sudeste 0 -- -- 86
2019-04-14 08:00:00 11.6 0 Calma 8 Sur 0 -- -- 84
2019-04-14 07:00:00 11.5 4 Sur 8 Sur 0 -- -- 84
2019-04-14 06:00:00 11 0 Calma 7 Este 0 -- -- 86
2019-04-14 05:00:00 10.7 3 Sur 8 Sudeste 0 -- -- 86
2019-04-14 04:00:00 11.4 3 Sur 12 Sudeste 0 -- -- 84
2019-04-14 03:00:00 11.7 2 Sudeste 5 Sudeste 0 -- -- 83
2019-04-14 02:00:00 12.5 2 Sudoeste 6 Sudeste 0 -- -- 80
2019-04-14 01:00:00 13.1 0 Calma 5 Oeste 0 -- -- 77
2019-04-14 00:00:00 13.5 0 Calma 6 Sudoeste 0 -- -- 76
2019-04-13 23:00:00 14.2 0 Calma 8 Sur 0 -- -- 70
2019-04-13 22:00:00 15.1 3 Sur 9 Oeste 0 -- -- 63
2019-04-13 21:00:00 16.7 6 Oeste 17 Noroeste 0 -- -- 52
2019-04-13 20:00:00 17.6 10 Norte 23 Norte 0 -- -- 50
2019-04-13 19:00:00 18.7 13 Norte 23 Norte 0 -- -- 48
2019-04-13 18:00:00 19.8 13 Norte 29 Norte 0 -- -- 48
2019-04-13 17:00:00 20.7 18 Norte 35 Norte 0 -- -- 48
2019-04-13 16:00:00 21.1 14 Norte 26 Norte 0 -- -- 47
2019-04-13 15:00:00 20.7 14 Norte 24 Norte 0 -- -- 44
2019-04-13 14:00:00 20.4 15 Norte 21 Norte 0 -- -- 40
2019-04-13 13:00:00 19.4 13 Norte 21 Norte 0 -- -- 46
2019-04-13 12:00:00 16.7 7 Norte 10 Norte 0 -- -- 57
2019-04-13 11:00:00 13.2 5 Norte 11 Norte 0 -- -- 72
2019-04-13 10:00:00 9.6 0 Calma 4 Nordeste 0 -- -- 82
2019-04-13 09:00:00 6.7 0 Calma 3 Sudoeste 0 -- -- 96
2019-04-13 08:00:00 5.8 0 Calma 3 Sudoeste 0 -- -- 95
2019-04-13 07:00:00 5.7 0 Calma 4 Sudoeste 0 -- -- 95
2019-04-13 06:00:00 6 3 Sudeste 13 Sur 0 -- -- 94
2019-04-13 05:00:00 5.9 0 Calma 3 Sudoeste 0 -- -- 94
2019-04-13 04:00:00 6.5 0 Calma 9 Sudeste 0 -- -- 94
2019-04-13 03:00:00 6.6 0 Calma 11 Sudeste 0 -- -- 93
2019-04-13 02:00:00 6.6 0 Calma 10 Sudeste 0 -- -- 93
2019-04-13 01:00:00 7.7 5 Sudeste 13 Sudeste 0 -- -- 91
2019-04-13 00:00:00 8.3 5 Sur 12 Sudeste 0 -- -- 90
2019-04-12 23:00:00 9.6 3 Sur 5 Sur 0 -- -- 86
2019-04-12 22:00:00 10.9 2 Sudoeste 10 Oeste 0 -- -- 81
2019-04-12 21:00:00 13.5 5 Oeste 19 Sudoeste 0 -- -- 72
2019-04-12 20:00:00 14.6 6 Noroeste 23 Norte 0 -- -- 69
2019-04-12 19:00:00 16.2 11 Norte 24 Norte 0 -- -- 63
2019-04-12 18:00:00 17.1 15 Norte 24 Norte 0 -- -- 55
2019-04-12 17:00:00 17.4 13 Norte 27 Norte 0 -- -- 49
2019-04-12 16:00:00 17.2 12 Norte 24 Norte 0 -- -- 44
2019-04-12 15:00:00 16.5 13 Norte 23 Norte 0 -- -- 47
2019-04-12 14:00:00 15.7 12 Norte 23 Norte 0 -- -- 50
2019-04-12 13:00:00 14.2 10 Norte 18 Norte 0 -- -- 51
2019-04-12 12:00:00 11.6 5 Norte 10 Norte 0 -- -- 59
2019-04-12 11:00:00 9.1 4 Nordeste 7 Nordeste 0 -- -- 76
2019-04-12 10:00:00 6.1 3 Este 11 Sudeste 0 -- -- 85
2019-04-12 09:00:00 2.9 5 Sudeste 13 Sudeste 0 -- -- 97
2019-04-12 08:00:00 3 0 Calma 12 Sudeste 0 -- -- 94
2019-04-12 07:00:00 4.4 4 Sudeste 11 Sudeste 0 -- -- 93
2019-04-12 06:00:00 4.9 4 Sudeste 12 Este 0 -- -- 94
2019-04-12 05:00:00 5.2 5 Sudeste 8 Sudeste 0 -- -- 94
2019-04-12 04:00:00 5.8 3 Este 7 Sudeste 0 -- -- 93
2019-04-12 03:00:00 6.6 3 Sudeste 9 Sudeste 0 -- -- 93
2019-04-12 02:00:00 7.2 4 Sudeste 10 Sudeste 0 -- -- 95
2019-04-12 01:00:00 7.4 3 Sur 6 Sur 0 -- -- 96
2019-04-12 00:00:00 7.1 0 Calma 4 Sudoeste 0 -- -- 97
2019-04-11 23:00:00 8.7 0 Calma 3 Sudeste 0 -- -- 94
2019-04-11 22:00:00 9.1 0 Calma 8 Oeste 0 -- -- 93
2019-04-11 21:00:00 9.4 4 Sudoeste 11 Oeste 0.4 -- -- 90
2019-04-11 20:00:00 9.6 3 Oeste 11 Sudoeste 0.2 -- -- 88
2019-04-11 19:00:00 9.7 4 Sudoeste 13 Sudoeste 0.2 -- -- 87
2019-04-11 18:00:00 10.6 5 Norte 14 Norte 0 -- -- 79
2019-04-11 17:00:00 10.2 11 Norte 34 Norte 0 -- -- 81
2019-04-11 16:00:00 11.9 7 Norte 16 Norte 0 -- -- 68
2019-04-11 15:00:00 11.4 4 Norte 10 Norte 0 -- -- 72
2019-04-11 14:00:00 10 8 Norte 25 Nordeste 0 -- -- 74
2019-04-11 13:00:00 11.7 7 Norte 15 Norte 0 -- -- 68
2019-04-11 12:00:00 9.3 5 Norte 8 Norte 0 -- -- 84
2019-04-11 11:00:00 8 5 Norte 7 Norte 0 -- -- 86
2019-04-11 10:00:00 6.5 2 Este 5 Este 0 -- -- 94
2019-04-11 09:00:00 4.1 0 Calma 3 Sudeste 0 -- -- 100
2019-04-11 08:00:00 3.8 0 Calma 6 Sudeste 0 -- -- 98
2019-04-11 07:00:00 4.6 0 Calma 5 Sudeste 0 -- -- 98
2019-04-11 06:00:00 5.1 0 Calma 4 Sur 0 -- -- 98
2019-04-11 05:00:00 5.3 0 Calma 8 Sur 0.2 -- -- 98
2019-04-11 04:00:00 5.7 4 Sur 7 Sur 0 -- -- 97
2019-04-11 03:00:00 6.7 2 Sur 4 Este 0 -- -- 97
2019-04-11 02:00:00 7.4 0 Calma 6 Noroeste 0 -- -- 96
2019-04-11 01:00:00 8.3 0 Calma 12 Oeste 0 -- -- 94
2019-04-11 00:00:00 8.6 2 Norte 7 Norte 0 -- -- 93
2019-04-10 23:00:00 8.7 0 Calma 6 Oeste 0 -- -- 93
2019-04-10 22:00:00 8.8 4 Oeste 8 Oeste 0.2 -- -- 90
2019-04-10 21:00:00 9.8 2 Oeste 13 Norte 0 -- -- 83
2019-04-10 20:00:00 10.3 6 Norte 14 Norte 0 -- -- 81
2019-04-10 19:00:00 10.4 8 Norte 17 Norte 0 -- -- 81
2019-04-10 18:00:00 10.1 12 Norte 22 Norte 0 -- -- 82
2019-04-10 17:00:00 10.7 13 Norte 33 Norte 0 -- -- 78
2019-04-10 16:00:00 10.5 19 Norte 32 Norte 0.4 -- -- 79
2019-04-10 15:00:00 11 23 Norte 43 Norte 0 -- -- 80
2019-04-10 14:00:00 10.5 14 Norte 26 Norte 0.2 -- -- 83
2019-04-10 13:00:00 10 5 Norte 11 Noroeste 0.4 -- -- 86
2019-04-10 12:00:00 9.2 3 Sur 8 Sudeste 0.6 -- -- 91
2019-04-10 11:00:00 7.8 2 Este 14 Este 1 -- -- 96
2019-04-10 10:00:00 6.9 7 Este 13 Este 0.6 -- -- 97
2019-04-10 09:00:00 6.7 5 Sudeste 13 Sudeste 0.6 -- -- 94
2019-04-10 08:00:00 6.3 7 Sudeste 13 Sudeste 0.6 -- -- 98
2019-04-10 07:00:00 6.2 6 Sudeste 12 Sudeste 2 -- -- 96
2019-04-10 06:00:00 6.1 4 Sudeste 10 Sudeste 0 -- -- 95
2019-04-10 05:00:00 6.5 6 Sur 14 Sur 0.2 -- -- 91
2019-04-10 04:00:00 6.6 6 Sudeste 12 Sudeste -- -- -- 94
2019-04-10 03:00:00 6.4 4 Sur 13 Sudoeste 0.2 -- -- 91
2019-04-10 02:00:00 5.9 0 Calma 8 Sudeste 0 -- -- 91
2019-04-10 01:00:00 6.2 3 Sur 7 Sudeste 0 -- -- 88
2019-04-10 00:00:00 7.4 0 Calma 7 Sur 0 -- -- 87
2019-04-09 23:00:00 8.8 4 Sur 9 Sur 0 -- -- 82
2019-04-09 22:00:00 10.8 4 Sur 20 Oeste 0 -- -- 72
2019-04-09 21:00:00 12 9 Sudoeste 19 Sudoeste 0 -- -- 59
2019-04-09 20:00:00 14 4 Norte 20 Sudoeste 0 -- -- 49
2019-04-09 19:00:00 14.7 4 Nordeste 14 Nordeste 0 -- -- 39
2019-04-09 18:00:00 15.7 3 Este 16 Norte 0 -- -- 45
2019-04-09 17:00:00 14.3 8 Norte 15 Norte 0 -- -- 53
2019-04-09 16:00:00 14.1 5 Norte 18 Norte 0 -- -- 51
2019-04-09 15:00:00 14.2 6 Norte 17 Norte 0 -- -- 57
2019-04-09 14:00:00 12.8 10 Norte 22 Norte 0 -- -- 59
2019-04-09 13:00:00 12.6 10 Norte 21 Norte 0 -- -- 61
2019-04-09 12:00:00 12.9 9 Norte 20 Norte 0 -- -- 58
2019-04-09 11:00:00 11.4 9 Sudeste 17 Sudeste 0 -- -- 62
2019-04-09 10:00:00 10.4 4 Sudeste 12 Sudeste 0 -- -- 65
2019-04-09 09:00:00 9.5 3 Sur 12 Sur 0 -- -- 69
2019-04-09 08:00:00 9.7 6 Sur 17 Sudeste 0 -- -- 65
2019-04-09 07:00:00 9.5 7 Sur 26 Sudoeste 0 -- -- 63
2019-04-09 06:00:00 9.8 10 Sur 21 Sur 0 -- -- 63
2019-04-09 05:00:00 9.2 12 Sur 23 Sur 0 -- -- 65
2019-04-09 04:00:00 5.4 0 Calma 14 Noroeste 0 -- -- 88
2019-04-09 03:00:00 5.4 2 Sur 7 Norte 0 -- -- 92
2019-04-09 02:00:00 5.2 3 Norte 6 Norte 0 -- -- 93
2019-04-09 01:00:00 5.3 0 Calma 4 Sudoeste 0 -- -- 90
2019-04-09 00:00:00 5.8 2 Sudoeste 10 Sudeste 0 -- -- 89
2019-04-08 23:00:00 6.9 2 Sudoeste 8 Sudeste 0 -- -- 86
2019-04-08 22:00:00 8.2 3 Sudoeste 14 Norte 0 -- -- 81
2019-04-08 21:00:00 10.3 5 Norte 30 Norte 0 -- -- 72
2019-04-08 20:00:00 12.6 10 Norte 30 Norte 0 -- -- 65
2019-04-08 19:00:00 15.1 4 Norte 18 Sudeste 0 -- -- 46
2019-04-08 18:00:00 15.7 6 Sudeste 31 Sudeste 0 -- -- 40
2019-04-08 17:00:00 16 11 Sudeste 31 Sur 0 -- -- 41
2019-04-08 16:00:00 16.6 12 Sudeste 32 Sudeste 0 -- -- 37
2019-04-08 15:00:00 16.7 13 Sudeste 32 Sudeste 0 -- -- 43
2019-04-08 14:00:00 15.8 13 Sudeste 26 Sudeste 0 -- -- 44
2019-04-08 13:00:00 14.5 15 Sudeste 25 Sudeste 0 -- -- 48
2019-04-08 12:00:00 13.5 9 Sudeste 23 Sudeste 0 -- -- 55
2019-04-08 11:00:00 12 4 Este 7 Este 0 -- -- 71
2019-04-08 10:00:00 9.8 0 Calma 5 Sudeste 0.2 -- -- 87
2019-04-08 09:00:00 8 0 Calma 4 Sudoeste 0 -- -- 90
2019-04-08 08:00:00 7.7 0 Calma 4 Oeste 0 -- -- 87
2019-04-08 07:00:00 8.3 3 Oeste 11 Sudoeste 0 -- -- 80
2019-04-08 06:00:00 8.5 3 Oeste 11 Sur 0 -- -- 78
2019-04-08 05:00:00 9.5 7 Sudeste 25 Sudeste 0 -- -- 71
2019-04-08 04:00:00 10.8 8 Sudeste 27 Sur 0 -- -- 65
2019-04-08 03:00:00 10.9 9 Sudeste 30 Sur 0 -- -- 63
2019-04-08 02:00:00 10.3 12 Sur 35 Sur 0 -- -- 63
2019-04-08 01:00:00 10.4 14 Sudeste 29 Sur 0 -- -- 64
2019-04-08 00:00:00 9.8 12 Sudeste 34 Este 0.2 -- -- 70
2019-04-07 23:00:00 9.8 12 Sudeste 40 Sudeste 0.2 -- -- 69
2019-04-07 22:00:00 9.5 12 Sur 25 Sudoeste 0 -- -- 71
2019-04-07 21:00:00 9.3 9 Sur 24 Sur 0.4 -- -- 79
2019-04-07 20:00:00 9.6 5 Sur 14 Sudeste 0.8 -- -- 80
2019-04-07 19:00:00 11.3 5 Sudoeste 28 Sudoeste 0.2 -- -- 70
2019-04-07 18:00:00 14.6 13 Sur 33 Sur 0 -- -- 43
2019-04-07 17:00:00 15.7 13 Sudeste 39 Sudeste 0 -- -- 39
2019-04-07 16:00:00 16.3 17 Sudeste 30 Sudeste 0 -- -- 29
2019-04-07 15:00:00 15.8 7 Sudeste 24 Sudeste 0 -- -- 36
2019-04-07 14:00:00 15.5 7 Sur 21 Sudeste 0 -- -- 36
2019-04-07 13:00:00 14.1 8 Sudeste 19 Este 0 -- -- 38
2019-04-07 12:00:00 12.2 8 Sudeste 16 Sudeste 0 -- -- 46
2019-04-07 11:00:00 10.2 8 Sudeste 14 Este 0 -- -- 54
2019-04-07 10:00:00 6.2 12 Sudeste 22 Sudeste 0 -- -- 76
2019-04-07 09:00:00 2.3 12 Sudeste 18 Sudeste 0 -- -- 90
2019-04-07 08:00:00 2.4 7 Sudeste 17 Sudeste 0 -- -- 89
2019-04-07 07:00:00 3.3 5 Sur 18 Este 0 -- -- 88
2019-04-07 06:00:00 3.7 4 Sudeste 17 Sudeste 0 -- -- 88
2019-04-07 05:00:00 3.9 6 Sudeste 10 Sudeste 0 -- -- 90
2019-04-07 04:00:00 4.4 3 Sudeste 12 Sur 0 -- -- 89
2019-04-07 03:00:00 4.3 3 Sur 17 Este 0 -- -- 90
2019-04-07 02:00:00 4.3 6 Sudeste 10 Sudeste 0 -- -- 91
2019-04-07 01:00:00 4.6 5 Sur 13 Sudeste 0 -- -- 91
2019-04-07 00:00:00 5.2 4 Sudeste 13 Sudeste 0 -- -- 91
2019-04-06 23:00:00 5.9 2 Oeste 9 Noroeste 0 -- -- 91
2019-04-06 22:00:00 6.5 4 Sur 18 Norte 0 -- -- 80
2019-04-06 21:00:00 7.4 5 Noroeste 12 Noroeste 0 -- -- 81
2019-04-06 20:00:00 8.4 3 Sur 10 Sudoeste 0.2 -- -- 77
2019-04-06 19:00:00 8.1 3 Nordeste 21 Oeste 0.8 -- -- 79
2019-04-06 18:00:00 9.1 3 Norte 13 Nordeste 0.2 -- -- 75
2019-04-06 17:00:00 8.8 3 Sudoeste 17 Norte 1.4 -- -- 83
2019-04-06 16:00:00 9.5 12 Norte 24 Norte 0 -- -- 70
2019-04-06 15:00:00 9.1 9 Norte 41 Norte 0.4 -- -- 72
2019-04-06 14:00:00 12.7 16 Sudeste 36 Sudeste 0 -- -- 47
2019-04-06 13:00:00 12 15 Sudeste 31 Sudeste 0 -- -- 49
2019-04-06 12:00:00 10.1 12 Sur 30 Sudeste 0 -- -- 54
2019-04-06 11:00:00 10 14 Sur 30 Sudeste 0 -- -- 53
2019-04-06 10:00:00 8.7 12 Sudeste 27 Sudeste 0 -- -- 57
2019-04-06 09:00:00 6.8 5 Sur 14 Sur 0 -- -- 66
2019-04-06 08:00:00 6.8 6 Sur 16 Sur 0 -- -- 66
2019-04-06 07:00:00 6.5 7 Sur 14 Sur 0 -- -- 67
2019-04-06 06:00:00 2.9 0 Calma 4 Sur 0 -- -- 93
2019-04-06 05:00:00 2.9 0 Calma 7 Norte 0 -- -- 93
2019-04-06 04:00:00 2.4 0 Calma 6 Sur 0 -- -- 94
2019-04-06 03:00:00 2.1 0 Calma 5 Sur 0 -- -- 94
2019-04-06 02:00:00 2.2 0 Calma 8 Sudeste 0 -- -- 92
2019-04-06 01:00:00 3.1 3 Sur 9 Sur 0 -- -- 91
2019-04-06 00:00:00 4.1 0 Calma 9 Sudeste 0 -- -- 89
2019-04-05 23:00:00 5.6 3 Sudeste 6 Sur 0 -- -- 85
2019-04-05 22:00:00 6.6 2 Sudoeste 5 Norte 0 -- -- 79
2019-04-05 21:00:00 8.9 3 Sudoeste 14 Norte 0 -- -- 69
2019-04-05 20:00:00 9.7 7 Norte 22 Nordeste 0 -- -- 65
2019-04-05 19:00:00 10.5 12 Norte 30 Nordeste 0 -- -- 63
2019-04-05 18:00:00 12.3 4 Sur 20 Sur 0 -- -- 40
2019-04-05 17:00:00 13.4 10 Sur 23 Este 0 -- -- 38
2019-04-05 16:00:00 12.6 14 Sudeste 28 Sudeste 0 -- -- 39
2019-04-05 15:00:00 12.9 18 Sudeste 36 Sudeste 0 -- -- 41
2019-04-05 14:00:00 12 19 Sudeste 40 Sudeste 0 -- -- 41
2019-04-05 13:00:00 11.6 21 Sudeste 36 Sur 0 -- -- 43
2019-04-05 12:00:00 10.7 15 Sudeste 27 Sudeste 0 -- -- 44
2019-04-05 11:00:00 9.8 6 Norte 15 Norte 0 -- -- 67
2019-04-05 10:00:00 7 6 Nordeste 11 Nordeste 0.2 -- -- 86
2019-04-05 09:00:00 4.7 0 Calma 10 Sudeste 0 -- -- 93
2019-04-05 08:00:00 4.8 0 Calma 8 Sudoeste 0 -- -- 90
2019-04-05 07:00:00 5.8 5 Sur 8 Sur 0 -- -- 89
2019-04-05 06:00:00 6.3 3 Norte 8 Sudoeste 0 -- -- 85
2019-04-05 05:00:00 6.6 5 Oeste 13 Oeste 0 -- -- 78
2019-04-05 04:00:00 6.4 3 Norte 14 Sur 0 -- -- 80
2019-04-05 03:00:00 7.3 13 Sur 22 Sur 0 -- -- 74
2019-04-05 02:00:00 6.7 8 Sur 18 Sur 0.2 -- -- 81
2019-04-05 01:00:00 8 9 Sur 28 Sur 0 -- -- 70
2019-04-05 00:00:00 9.1 9 Sur 23 Sudoeste 0 -- -- 60
2019-04-04 23:00:00 9.1 9 Sur 22 Sur 0 -- -- 62
2019-04-04 22:00:00 9.7 11 Sur 26 Sudeste 0 -- -- 62
2019-04-04 21:00:00 10.1 9 Sur 29 Sur 0 -- -- 58
2019-04-04 20:00:00 10.1 13 Sur 36 Sudeste 0 -- -- 58
2019-04-04 19:00:00 10.2 14 Sudeste 37 Sudeste 0 -- -- 57
2019-04-04 18:00:00 10.1 15 Sudeste 34 Sudeste 0 -- -- 56
2019-04-04 17:00:00 10.6 14 Sudeste 32 Sudeste 0 -- -- 55
2019-04-04 16:00:00 11.2 11 Sur 36 Sudeste 0 -- -- 50
2019-04-04 15:00:00 12.1 11 Sudeste 27 Sudeste 0 -- -- 46
2019-04-04 14:00:00 12.2 13 Sudeste 37 Este 0 -- -- 43
2019-04-04 13:00:00 12.3 13 Sudeste 31 Sudeste 0 -- -- 47
2019-04-04 12:00:00 9.7 13 Sudeste 22 Sudeste 0 -- -- 53
2019-04-04 11:00:00 7.3 13 Sudeste 24 Sudeste 0 -- -- 68
2019-04-04 10:00:00 4.4 12 Sudeste 21 Sudeste 0 -- -- 86
2019-04-04 09:00:00 1.2 9 Sudeste 16 Sudeste 0 -- -- 96
2019-04-04 08:00:00 1.1 5 Sudeste 13 Este 0 -- -- 97
2019-04-04 07:00:00 1.6 3 Este 15 Sudeste 0 -- -- 97
2019-04-04 06:00:00 2 5 Este 14 Sudeste 0 -- -- 97
2019-04-04 05:00:00 2.5 7 Sudeste 12 Sudeste 0 -- -- 97
2019-04-04 04:00:00 2.5 5 Sudeste 10 Sudeste 0.2 -- -- 97
2019-04-04 03:00:00 2.4 5 Sudoeste 9 Sudoeste 1.4 -- -- 96
2019-04-04 02:00:00 3 4 Sur 9 Sudeste 0.6 -- -- 94
2019-04-04 01:00:00 3.2 5 Sudeste 19 Sudeste 0.4 -- -- 94
2019-04-04 00:00:00 3.3 6 Sudeste 15 Sur 0.2 -- -- 92
2019-04-03 23:00:00 3.6 3 Sur 9 Norte 0.2 -- -- 91
2019-04-03 22:00:00 3.9 2 Sudeste 8 Este 0 -- -- 93
2019-04-03 21:00:00 4.1 4 Sur 13 Sur 0.4 -- -- 91
2019-04-03 20:00:00 4.5 6 Oeste 23 Norte 0 -- -- 87
2019-04-03 19:00:00 5.6 6 Sudoeste 36 Norte 0.4 -- -- 87
2019-04-03 18:00:00 7.2 14 Norte 33 Norte 0 -- -- 70
2019-04-03 17:00:00 7.8 9 Norte 28 Nordeste 0 -- -- 65
2019-04-03 16:00:00 7.8 6 Nordeste 14 Sudoeste 0 -- -- 69
2019-04-03 15:00:00 6.7 5 Sur 19 Norte 0 -- -- 78
2019-04-03 14:00:00 5.3 13 Norte 29 Norte 0.2 -- -- 86
2019-04-03 13:00:00 6.8 2 Sur 11 Norte 0 -- -- 84
2019-04-03 12:00:00 5.4 3 Norte 9 Nordeste 0.6 -- -- 89
2019-04-03 11:00:00 4.9 2 Noroeste 15 Sudoeste 1.2 -- -- 90
2019-04-03 10:00:00 5.4 3 Sudeste 8 Sur 0.6 -- -- 94
2019-04-03 09:00:00 5.3 3 Sudoeste 8 Sudoeste 0.6 -- -- 92
2019-04-03 08:00:00 5.1 3 Noroeste 6 Norte 0 -- -- 97
2019-04-03 07:00:00 5.4 4 Sudoeste 8 Sudoeste 0.2 -- -- 94
2019-04-03 06:00:00 5.7 2 Noroeste 6 Noroeste 0 -- -- 93
2019-04-03 05:00:00 6.1 2 Noroeste 8 Sudoeste 0 -- -- 95
2019-04-03 04:00:00 6.5 0 Calma 6 Sudoeste 0 -- -- 95
2019-04-03 03:00:00 6.9 5 Oeste 7 Noroeste 0 -- -- 91
2019-04-03 02:00:00 7.1 0 Calma 12 Sudoeste 0 -- -- 91
2019-04-03 01:00:00 7.5 4 Oeste 13 Sudoeste 0 -- -- 88
2019-04-03 00:00:00 7.8 6 Oeste 12 Oeste 0 -- -- 88
2019-04-02 23:00:00 7.9 3 Noroeste 10 Sur 0 -- -- 94
2019-04-02 22:00:00 7.9 0 Calma 9 Oeste 0.4 -- -- 95
2019-04-02 21:00:00 8.1 6 Oeste 11 Norte 0.8 -- -- 92
2019-04-02 20:00:00 8.4 8 Norte 20 Norte 0.8 -- -- 92
2019-04-02 19:00:00 9.9 11 Norte 19 Norte 0 -- -- 85
2019-04-02 18:00:00 11.3 11 Norte 24 Norte 0 -- -- 74
2019-04-02 17:00:00 12.6 15 Norte 26 Norte 0 -- -- 71
2019-04-02 16:00:00 13.7 13 Norte 29 Norte 0 -- -- 63
2019-04-02 15:00:00 13.6 11 Norte 28 Norte 0 -- -- 64
2019-04-02 14:00:00 13.6 9 Norte 18 Norte 0 -- -- 64
2019-04-02 13:00:00 11.1 6 Norte 10 Norte 0 -- -- 78
2019-04-02 12:00:00 8.9 4 Norte 9 Norte 0 -- -- 82
2019-04-02 11:00:00 7.5 0 Calma 5 Sudeste 0 -- -- 86
2019-04-02 10:00:00 6.2 2 Sudeste 9 Este 0 -- -- 91
2019-04-02 09:00:00 4.7 2 Sudeste 6 Sudeste 0 -- -- 96
2019-04-02 08:00:00 3.6 0 Calma 3 Sudoeste 0 -- -- 94
2019-04-02 07:00:00 4 0 Calma 3 Noroeste 0 -- -- 92
2019-04-02 06:00:00 5 0 Calma 4 Sur 0 -- -- 92
2019-04-02 05:00:00 4.9 0 Calma 2 Sudeste 0 -- -- 92
2019-04-02 04:00:00 5 0 Calma 4 Sudeste 0 -- -- 89
2019-04-02 03:00:00 5.7 2 Sudoeste 3 Sudoeste 0 -- -- 87
2019-04-02 02:00:00 6.4 0 Calma 10 Sudeste 0 -- -- 86
2019-04-02 01:00:00 6.6 2 Sudoeste 13 Sudeste 0 -- -- 84
2019-04-02 00:00:00 7.4 0 Calma 11 Sudeste 0 -- -- 83
2019-04-01 23:00:00 8.8 5 Sur 9 Sudeste 0 -- -- 78
2019-04-01 22:00:00 10.4 2 Sudoeste 10 Norte 0 -- -- 72
2019-04-01 21:00:00 13.1 5 Norte 13 Norte 0 -- -- 65
2019-04-01 20:00:00 14.9 6 Noroeste 24 Norte 0 -- -- 56
2019-04-01 19:00:00 16.3 10 Norte 28 Norte 0 -- -- 51
2019-04-01 18:00:00 16.9 12 Norte 27 Norte 0 -- -- 48
2019-04-01 17:00:00 17.7 12 Norte 28 Norte 0 -- -- 44
2019-04-01 16:00:00 17.9 12 Norte 26 Norte 0 -- -- 33
2019-04-01 15:00:00 17.5 12 Norte 27 Norte 0 -- -- 34
2019-04-01 14:00:00 16.9 12 Norte 19 Norte 0 -- -- 39
2019-04-01 13:00:00 16.2 10 Norte 20 Norte 0 -- -- 39
2019-04-01 12:00:00 13.6 7 Norte 10 Norte 0 -- -- 65
2019-04-01 11:00:00 10.2 5 Norte 10 Norte 0 -- -- 75
2019-04-01 10:00:00 7.4 4 Este 13 Sudeste 0 -- -- 86
2019-04-01 09:00:00 3.7 0 Calma 15 Sudeste 0 -- -- 96
2019-04-01 08:00:00 2.9 0 Calma 3 Sudeste 0 -- -- 96
2019-04-01 07:00:00 3.6 0 Calma 2 Sudoeste 0 -- -- 96
2019-04-01 06:00:00 4.3 0 Calma 3 Oeste 0 -- -- 94
2019-04-01 05:00:00 4.8 0 Calma 3 Sudoeste 0 -- -- 93
2019-04-01 04:00:00 5.7 0 Calma 8 Sudeste 0 -- -- 91
2019-04-01 03:00:00 6.9 2 Sur 12 Sur 0 -- -- 90
2019-04-01 02:00:00 7.7 0 Calma 5 Sur 0 -- -- 88
2019-04-01 01:00:00 9.3 0 Calma 10 Este 0 -- -- 84
2019-04-01 00:00:00 9.9 5 Sur 10 Sudeste 0 -- -- 84
2019-03-31 23:00:00 10 4 Sur 10 Sur 0 -- -- 83
2019-03-31 22:00:00 10.2 0 Calma 7 Sur 0 -- -- 78
2019-03-31 21:00:00 12.1 3 Sudoeste 5 Sudoeste 0 -- -- 73
2019-03-31 20:00:00 14.1 4 Sur 12 Sur 0 -- -- 67
2019-03-31 19:00:00 16.5 8 Sur 16 Sudeste 0 -- -- 58
2019-03-31 18:00:00 16.9 2 Norte 9 Noroeste 0 -- -- 49
2019-03-31 17:00:00 15.9 6 Noroeste 26 Este 0 -- -- 53
2019-03-31 16:00:00 15.7 14 Este 30 Este 0 -- -- 58
2019-03-31 15:00:00 18.6 10 Norte 24 Norte 0 -- -- 45
2019-03-31 14:00:00 18.9 14 Norte 22 Norte 0 -- -- 42
2019-03-31 13:00:00 17.7 7 Norte 20 Norte 0 -- -- 44
2019-03-31 12:00:00 13.8 6 Norte 11 Norte 0 -- -- 64
2019-03-31 11:00:00 10.8 6 Norte 9 Norte 0 -- -- 76
2019-03-31 10:00:00 7.6 3 Norte 9 Sudeste 0 -- -- 90
2019-03-31 09:00:00 4.3 0 Calma 3 Sur 0 -- -- 97
2019-03-31 08:00:00 4.3 0 Calma 9 Sudeste 0 -- -- 96
2019-03-31 07:00:00 4.7 2 Sur 11 Sudeste 0 -- -- 96
2019-03-31 06:00:00 5.3 0 Calma 8 Sudeste 0 -- -- 95
2019-03-31 05:00:00 5.9 0 Calma 9 Sudeste 0 -- -- 95
2019-03-31 03:00:00 6.9 0 Calma 10 Sudeste 0 -- -- 95
2019-03-31 01:00:00 7.7 3 Sudeste 8 Sudeste 0 -- -- 95
2019-03-31 00:00:00 8.4 0 Calma 8 Sudeste 0 -- -- 93
2019-03-30 23:00:00 9.7 4 Sudeste 15 Sudeste 0 -- -- 92
2019-03-30 22:00:00 10.4 7 Sudeste 19 Sudeste 0 -- -- 91
2019-03-30 21:00:00 10.4 9 Sudeste 19 Sudeste 0.2 -- -- 94
2019-03-30 20:00:00 10.5 6 Sudoeste 21 Sur 1.6 -- -- 94
2019-03-30 19:00:00 11.7 12 Sudoeste 31 Sudoeste 2.6 -- -- 85
2019-03-30 18:00:00 15.2 3 Oeste 22 Norte 0 -- -- 63
2019-03-30 17:00:00 16.1 16 Norte 31 Norte 0 -- -- 64
2019-03-30 16:00:00 18.4 5 Sur 18 Norte 0 -- -- 43
2019-03-30 15:00:00 18.4 9 Norte 24 Norte 0 -- -- 42
2019-03-30 14:00:00 19.2 7 Norte 18 Norte 0 -- -- 43
2019-03-30 13:00:00 15.7 4 Norte 9 Norte 0 -- -- 60
2019-03-30 12:00:00 15 0 Calma 3 Sudeste 0 -- -- 67
2019-03-30 11:00:00 12.3 0 Calma 5 Nordeste 0 -- -- 71
2019-03-30 10:00:00 9.9 2 Sudeste 5 Sur 0 -- -- 82
2019-03-30 09:00:00 7.7 0 Calma 4 Sur 0 -- -- 85
2019-03-30 08:00:00 6.5 0 Calma 4 Este 0 -- -- 86
2019-03-30 07:00:00 5.9 0 Calma 3 Sudoeste 0 -- -- 87
2019-03-30 06:00:00 5.7 0 Calma 3 Sur 0 -- -- 87
2019-03-30 05:00:00 5.7 2 Noroeste 4 Sudoeste 0 -- -- 87
2019-03-30 04:00:00 5.3 0 Calma 8 Sur 0 -- -- 87
2019-03-30 03:00:00 6.1 2 Sur 10 Sudeste 0 -- -- 85
2019-03-30 02:00:00 6.5 0 Calma 12 Sudeste 0 -- -- 85
2019-03-30 01:00:00 7.8 6 Sur 12 Sur 0 -- -- 83
2019-03-30 00:00:00 8.5 2 Noroeste 12 Sudeste 0 -- -- 82
2019-03-29 23:00:00 9.7 2 Sur 9 Sudeste 0 -- -- 81
2019-03-29 22:00:00 11.1 0 Calma 12 Sudeste 0 -- -- 78
2019-03-29 21:00:00 11.9 2 Sur 5 Sur 0 -- -- 74
2019-03-29 20:00:00 12.9 3 Sudoeste 13 Sudoeste 0 -- -- 69
2019-03-29 19:00:00 15.5 5 Oeste 17 Norte 0 -- -- 61
2019-03-29 18:00:00 16.9 6 Norte 22 Norte 0 -- -- 54
2019-03-29 17:00:00 17.8 13 Norte 27 Norte 0 -- -- 51
2019-03-29 16:00:00 18.4 14 Norte 26 Norte 0 -- -- 50
2019-03-29 15:00:00 18.2 15 Norte 27 Norte 0 -- -- 48
2019-03-29 14:00:00 17.7 16 Norte 28 Norte 0 -- -- 52
2019-03-29 13:00:00 16.5 14 Norte 23 Norte 0 -- -- 52
2019-03-29 12:00:00 14.3 10 Norte 19 Norte 0 -- -- 68
2019-03-29 11:00:00 10.9 6 Norte 10 Norte 0 -- -- 76
2019-03-29 10:00:00 7.9 2 Nordeste 5 Este 0 -- -- 86
2019-03-29 09:00:00 4.3 2 Nordeste 4 Nordeste 0 -- -- 97
2019-03-29 08:00:00 1.4 0 Calma 2 Oeste 0 -- -- 98
2019-03-29 07:00:00 1.6 0 Calma 4 Sur 0 -- -- 97
2019-03-29 06:00:00 2.1 0 Calma 9 Sudeste 0 -- -- 96
2019-03-29 05:00:00 2.8 0 Calma 4 Sudeste 0 -- -- 96
2019-03-29 04:00:00 3.8 0 Calma 7 Sudeste 0 -- -- 94
2019-03-29 03:00:00 3.8 0 Calma 3 Este 0 -- -- 95
2019-03-29 02:00:00 4.1 0 Calma 4 Sudeste 0 -- -- 95
2019-03-29 01:00:00 4.7 3 Sur 6 Sur 0 -- -- 94
2019-03-29 00:00:00 5.4 0 Calma 3 Oeste 0 -- -- 92
2019-03-28 23:00:00 6.5 0 Calma 3 Sudoeste 0 -- -- 89
2019-03-28 22:00:00 7.4 2 Sudoeste 4 Sudoeste 0 -- -- 86
2019-03-28 21:00:00 9.3 0 Calma 13 Sudoeste 0 -- -- 80
2019-03-28 20:00:00 12.3 5 Sudoeste 17 Sudoeste 0 -- -- 69
2019-03-28 19:00:00 13.9 6 Oeste 19 Norte 0 -- -- 63
2019-03-28 18:00:00 15.3 12 Norte 23 Norte 0 -- -- 58
2019-03-28 17:00:00 16.3 15 Norte 26 Norte 0 -- -- 55
2019-03-28 16:00:00 16.7 14 Norte 28 Norte 0 -- -- 52
2019-03-28 15:00:00 16.6 14 Norte 33 Norte 0 -- -- 49
2019-03-28 14:00:00 15.9 14 Norte 25 Norte 0 -- -- 47
2019-03-28 13:00:00 15 13 Norte 26 Norte 0 -- -- 51
2019-03-28 12:00:00 13.2 16 Norte 24 Norte 0 -- -- 56
2019-03-28 11:00:00 10.6 6 Norte 12 Norte 0 -- -- 67
2019-03-28 10:00:00 7.3 3 Norte 5 Norte 0 -- -- 78
2019-03-28 09:00:00 3.8 3 Este 6 Sudeste 0 -- -- 95
2019-03-28 08:00:00 0.8 0 Calma 6 Sudeste 0 -- -- 97
2019-03-28 07:00:00 0.9 0 Calma 4 Sur 0 -- -- 97
2019-03-28 06:00:00 1.2 0 Calma 12 Sudeste 0 -- -- 96
2019-03-28 05:00:00 1.6 5 Sur 10 Sudeste 0 -- -- 97
2019-03-28 04:00:00 2 0 Calma 2 Sudoeste 0 -- -- 96
2019-03-28 03:00:00 2.4 0 Calma 8 Sudeste 0 -- -- 94
2019-03-28 02:00:00 3.3 5 Sur 8 Sudeste 0 -- -- 95
2019-03-28 01:00:00 3.7 0 Calma 3 Sudoeste 0 -- -- 93
2019-03-28 00:00:00 4.5 0 Calma 3 Sudoeste 0 -- -- 90
2019-03-27 23:00:00 5.5 0 Calma 4 Sudoeste 0 -- -- 89
2019-03-27 22:00:00 6.7 0 Calma 5 Oeste 0 -- -- 86
2019-03-27 21:00:00 8.5 3 Oeste 15 Sudoeste 0 -- -- 79
2019-03-27 20:00:00 11.2 7 Sudoeste 15 Noroeste 0 -- -- 70
2019-03-27 19:00:00 12.7 6 Noroeste 25 Norte 0 -- -- 64
2019-03-27 18:00:00 14.2 17 Norte 26 Norte 0 -- -- 60
2019-03-27 17:00:00 15.7 14 Norte 26 Norte 0 -- -- 52
2019-03-27 16:00:00 16.1 17 Norte 29 Norte 0 -- -- 49
2019-03-27 15:00:00 16 15 Norte 28 Norte 0 -- -- 47
2019-03-27 14:00:00 15.9 14 Norte 24 Norte 0 -- -- 40
2019-03-27 13:00:00 14.7 15 Norte 26 Norte 0 -- -- 43
2019-03-27 12:00:00 13.1 9 Norte 18 Norte 0 -- -- 52
2019-03-27 11:00:00 10.2 7 Norte 11 Norte 0 -- -- 68
2019-03-27 10:00:00 6.9 4 Nordeste 6 Nordeste 0 -- -- 81
2019-03-27 09:00:00 3.2 0 Calma 4 Norte 0 -- -- 97
2019-03-27 08:00:00 0.7 0 Calma 8 Sudeste 0 -- -- 96
2019-03-27 07:00:00 0.7 3 Sur 12 Sudeste 0 -- -- 96
2019-03-27 06:00:00 0.9 3 Sur 5 Sur 0 -- -- 97
2019-03-27 05:00:00 1.1 2 Sur 7 Sudeste 0 -- -- 96
2019-03-27 04:00:00 1.5 0 Calma 4 Sudeste 0 -- -- 95
2019-03-27 03:00:00 1.8 0 Calma 3 Oeste 0 -- -- 94
2019-03-27 02:00:00 2.4 0 Calma 2 Sur 0 -- -- 92
2019-03-27 01:00:00 3.3 3 Sudoeste 5 Sudoeste 0 -- -- 92
2019-03-27 00:00:00 4 0 Calma 3 Sudoeste 0 -- -- 88
2019-03-26 23:00:00 4.8 2 Sudoeste 6 Sur 0 -- -- 87
2019-03-26 22:00:00 6 2 Sudoeste 4 Sudoeste 0 -- -- 83
2019-03-26 21:00:00 7.5 2 Sudoeste 10 Oeste 0 -- -- 78
2019-03-26 20:00:00 10.4 5 Oeste 13 Oeste 0 -- -- 66
2019-03-26 19:00:00 11.9 4 Nordeste 19 Norte 0 -- -- 61
2019-03-26 18:00:00 13.6 10 Norte 25 Norte 0 -- -- 55
2019-03-26 17:00:00 14.7 15 Norte 26 Norte 0 -- -- 51
2019-03-26 16:00:00 15.2 14 Norte 31 Norte 0 -- -- 50
2019-03-26 15:00:00 15.5 12 Norte 22 Norte 0 -- -- 48
2019-03-26 14:00:00 14.3 9 Norte 23 Norte 0 -- -- 54
2019-03-26 13:00:00 13 11 Norte 17 Norte 0 -- -- 57
2019-03-26 12:00:00 11.7 8 Norte 15 Norte 0 -- -- 62
2019-03-26 11:00:00 9.6 5 Norte 10 Norte 0 -- -- 72
2019-03-26 10:00:00 7.7 0 Calma 4 Norte 0 -- -- 81
2019-03-26 09:00:00 5.6 0 Calma 3 Norte 0 -- -- 91
2019-03-26 08:00:00 4.6 0 Calma 3 Sudeste 0 -- -- 93
2019-03-26 07:00:00 4.3 0 Calma 5 Sudoeste 0 -- -- 93
2019-03-26 06:00:00 4.3 2 Sudoeste 9 Sudeste 0 -- -- 91
2019-03-26 05:00:00 5.6 5 Sudeste 9 Sudeste 0 -- -- 89
2019-03-26 04:00:00 5.9 0 Calma 9 Sudeste 0 -- -- 90
2019-03-26 03:00:00 5.2 0 Calma 7 Noroeste 0 -- -- 88
2019-03-26 02:00:00 7 2 Sudoeste 11 Norte 0 -- -- 86
2019-03-26 01:00:00 6.8 3 Noroeste 10 Oeste 0 -- -- 88
2019-03-26 00:00:00 7.8 4 Oeste 22 Sudoeste 0 -- -- 85
2019-03-25 23:00:00 7.4 6 Oeste 14 Norte 0 -- -- 85
2019-03-25 22:00:00 8.6 7 Norte 20 Norte 0 -- -- 82
2019-03-25 21:00:00 9.2 11 Norte 24 Norte 0 -- -- 81
2019-03-25 20:00:00 10.3 12 Norte 22 Norte 0 -- -- 76
2019-03-25 19:00:00 11.5 7 Norte 27 Norte 0 -- -- 73
2019-03-25 18:00:00 12.7 14 Norte 28 Norte 0 -- -- 69
2019-03-25 17:00:00 13.9 11 Norte 30 Norte 0 -- -- 65
2019-03-25 16:00:00 14.4 17 Norte 31 Norte 0 -- -- 62
2019-03-25 15:00:00 14.7 12 Norte 24 Norte 0 -- -- 59
2019-03-25 14:00:00 13.8 12 Norte 26 Norte 0 -- -- 64
2019-03-25 13:00:00 13 10 Norte 18 Noroeste 0 -- -- 65
2019-03-25 12:00:00 12.2 13 Norte 20 Norte 0 -- -- 69
2019-03-25 11:00:00 11.1 5 Norte 11 Norte 0 -- -- 78
2019-03-25 10:00:00 9.7 2 Norte 5 Norte 0 -- -- 84
2019-03-25 09:00:00 9 3 Sudeste 9 Este 0 -- -- 87
2019-03-25 08:00:00 8.5 2 Sudoeste 12 Este 0 -- -- 88
2019-03-25 07:00:00 8.3 6 Sudeste 13 Sudeste 0 -- -- 87
2019-03-25 06:00:00 8.6 8 Sudeste 12 Sudeste 0 -- -- 87
2019-03-25 05:00:00 9 0 Calma 8 Sudoeste 0 -- -- 88
2019-03-25 04:00:00 9 3 Sur 7 Oeste 0 -- -- 87
2019-03-25 03:00:00 8.8 0 Calma 7 Sudeste 0 -- -- 91
2019-03-25 02:00:00 8.7 3 Sur 6 Sur 0 -- -- 90
2019-03-25 01:00:00 8.4 0 Calma 3 Sur 0 -- -- 92
2019-03-25 00:00:00 8 3 Noroeste 6 Noroeste 0 -- -- 92